createdAt,value
2018-10-12T00:01:15.478Z,27.25
2018-10-12T00:03:44.823Z,24.25
2018-10-12T00:06:14.416Z,23.50
2018-10-12T00:08:43.679Z,21.00
2018-10-12T00:11:13.025Z,23.75
2018-10-12T00:13:42.347Z,21.25
2018-10-12T00:16:11.632Z,19.25
2018-10-12T00:18:40.947Z,19.75
2018-10-12T00:21:10.414Z,20.00
2018-10-12T00:23:39.869Z,18.25
2018-10-12T00:26:09.408Z,19.50
2018-10-12T00:28:39.448Z,21.00
2018-10-12T00:31:08.765Z,22.50
2018-10-12T00:33:38.071Z,21.75
2018-10-12T00:36:07.566Z,21.00
2018-10-12T00:38:36.973Z,20.50
2018-10-12T00:41:06.326Z,20.50
2018-10-12T00:43:35.564Z,17.50
2018-10-12T00:46:04.888Z,20.00
2018-10-12T00:48:34.158Z,20.75
2018-10-12T00:51:03.397Z,15.00
2018-10-12T00:53:32.618Z,21.00
2018-10-12T00:56:01.902Z,17.75
2018-10-12T00:58:31.392Z,19.25
2018-10-12T01:01:00.569Z,18.00
2018-10-12T01:03:29.932Z,21.00
2018-10-12T01:05:59.481Z,18.25
2018-10-12T01:08:28.798Z,20.25
2018-10-12T01:10:58.286Z,18.00
2018-10-12T01:13:27.614Z,17.25
2018-10-12T01:15:56.997Z,20.00
2018-10-12T01:18:26.319Z,16.75
2018-10-12T01:20:55.710Z,20.50
2018-10-12T01:23:25.126Z,17.00
2018-10-12T01:25:54.483Z,18.00
2018-10-12T01:28:24.493Z,21.25
2018-10-12T01:30:53.914Z,17.25
2018-10-12T01:33:23.320Z,18.25
2018-10-12T01:35:52.702Z,17.00
2018-10-12T01:38:22.050Z,16.50
2018-10-12T01:40:51.476Z,18.75
2018-10-12T01:43:20.915Z,19.00
2018-10-12T01:45:50.253Z,15.50
2018-10-12T01:48:20.285Z,16.50
2018-10-12T01:50:49.725Z,16.75
2018-10-12T01:53:20.320Z,12.75
2018-10-12T01:55:50.758Z,13.25
2018-10-12T01:58:24.275Z,13.25
2018-10-12T02:00:54.228Z,10.25
2018-10-12T02:03:23.512Z,13.00
2018-10-12T02:05:52.889Z,13.00
2018-10-12T02:08:23.233Z,13.50
2018-10-12T02:10:52.684Z,12.00
2018-10-12T02:13:21.993Z,13.00
2018-10-12T02:15:51.453Z,8.00
2018-10-12T02:18:21.424Z,9.50
2018-10-12T02:20:51.033Z,9.50
2018-10-12T02:23:20.742Z,8.50
2018-10-12T02:25:50.241Z,11.75
2018-10-12T02:31:32.605Z,9.50
2018-10-12T02:34:02.103Z,12.50
2018-10-12T02:36:32.342Z,8.50
2018-10-12T02:39:02.196Z,7.50
2018-10-12T02:41:32.744Z,7.00
2018-10-12T02:44:02.251Z,12.25
2018-10-12T02:46:31.891Z,8.00
2018-10-12T02:49:01.347Z,8.00
2018-10-12T02:51:31.023Z,7.75
2018-10-12T02:54:00.966Z,8.00
2018-10-12T02:56:30.352Z,7.00
2018-10-12T02:58:59.693Z,6.00
2018-10-12T03:01:29.252Z,8.00
2018-10-12T03:03:58.946Z,7.00
2018-10-12T03:06:28.560Z,5.75
2018-10-12T03:08:58.058Z,7.00
2018-10-12T03:11:28.165Z,9.00
2018-10-12T03:13:57.554Z,8.00
2018-10-12T03:16:26.985Z,5.00
2018-10-12T03:18:56.560Z,6.00
2018-10-12T03:21:26.293Z,8.00
2018-10-12T03:23:56.058Z,7.25
2018-10-12T03:26:25.736Z,5.00
2018-10-12T03:28:55.643Z,8.00
2018-10-12T03:31:25.428Z,8.00
2018-10-12T03:33:55.262Z,5.75
2018-10-12T03:36:25.690Z,7.75
2018-10-12T03:38:55.209Z,7.25
2018-10-12T03:41:25.730Z,5.75
2018-10-12T03:43:55.133Z,8.00
2018-10-12T03:46:24.473Z,7.00
2018-10-12T03:48:53.916Z,7.50
2018-10-12T03:51:23.243Z,10.00
2018-10-12T03:53:52.515Z,7.25
2018-10-12T03:56:21.841Z,6.00
2018-10-12T03:58:51.228Z,9.00
2018-10-12T04:01:20.702Z,8.75
2018-10-12T04:03:50.047Z,9.00
2018-10-12T04:06:19.474Z,7.00
2018-10-12T04:08:49.479Z,8.75
2018-10-12T04:11:19.056Z,9.50
2018-10-12T04:13:48.684Z,7.50
2018-10-12T04:16:18.624Z,8.00
2018-10-12T04:18:48.287Z,6.25
2018-10-12T04:21:23.171Z,7.25
2018-10-12T04:23:52.670Z,11.00
2018-10-12T04:26:22.568Z,7.00
2018-10-12T04:28:52.220Z,7.00
2018-10-12T04:31:25.072Z,8.50
2018-10-12T04:33:55.244Z,8.00
2018-10-12T04:36:24.969Z,6.50
2018-10-12T04:39:05.900Z,9.00
2018-10-12T04:41:39.787Z,8.00
2018-10-12T04:44:09.455Z,6.75
2018-10-12T04:46:43.509Z,9.00
2018-10-12T04:49:14.775Z,10.50
2018-10-12T04:51:48.059Z,7.00
2018-10-12T04:54:17.503Z,7.00
2018-10-12T04:56:47.358Z,8.00
2018-10-12T04:59:16.580Z,7.00
2018-10-12T05:01:46.744Z,7.00
2018-10-12T05:04:15.961Z,9.00
2018-10-12T05:06:45.219Z,9.75
2018-10-12T05:09:15.299Z,10.50
2018-10-12T05:11:50.041Z,8.00
2018-10-12T05:14:20.710Z,7.00
2018-10-12T05:16:50.497Z,9.00
2018-10-12T05:19:20.732Z,7.00
2018-10-12T05:21:56.912Z,9.00
2018-10-12T05:24:26.988Z,8.50
2018-10-12T05:26:57.101Z,10.00
2018-10-12T05:29:27.024Z,9.00
2018-10-12T05:31:57.992Z,7.50
2018-10-12T05:34:28.215Z,10.00
2018-10-12T05:36:57.473Z,9.00
2018-10-12T05:39:26.816Z,9.75
2018-10-12T05:41:56.068Z,7.00
2018-10-12T05:44:25.351Z,9.75
2018-10-12T05:46:54.648Z,7.00
2018-10-12T05:49:35.186Z,7.00
2018-10-12T05:52:05.590Z,6.25
2018-10-12T05:54:34.981Z,9.50
2018-10-12T05:57:04.338Z,9.00
2018-10-12T05:59:33.744Z,7.00
2018-10-12T06:02:04.268Z,10.00
2018-10-12T06:04:33.919Z,10.50
2018-10-12T06:07:04.380Z,10.00
2018-10-12T06:09:33.833Z,9.25
2018-10-12T06:12:03.066Z,9.00
2018-10-12T06:14:32.423Z,7.50
2018-10-12T06:17:01.675Z,9.75
2018-10-12T06:19:32.860Z,11.00
2018-10-12T06:22:03.011Z,10.00
2018-10-12T06:24:32.543Z,12.00
2018-10-12T06:27:02.048Z,10.00
2018-10-12T06:29:31.689Z,12.00
2018-10-12T06:32:02.064Z,8.50
2018-10-12T06:34:33.302Z,12.00
2018-10-12T06:37:03.798Z,9.75
2018-10-12T06:39:34.372Z,12.00
2018-10-12T06:42:06.765Z,8.50
2018-10-12T06:44:38.057Z,11.25
2018-10-12T06:47:08.440Z,9.25
2018-10-12T06:49:39.129Z,11.25
2018-10-12T06:52:12.186Z,12.00
2018-10-12T06:54:43.513Z,9.25
2018-10-12T06:57:13.861Z,12.00
2018-10-12T06:59:43.822Z,9.50
2018-10-12T07:02:19.550Z,10.00
2018-10-12T07:04:51.272Z,9.75
2018-10-12T07:07:21.298Z,11.75
2018-10-12T07:09:52.628Z,7.50
2018-10-12T07:12:25.388Z,9.00
2018-10-12T07:14:56.581Z,9.50
2018-10-12T07:17:27.400Z,9.00
2018-10-12T07:19:57.534Z,6.75
2018-10-12T07:22:28.402Z,6.50
2018-10-12T07:24:59.756Z,8.00
2018-10-12T07:27:31.036Z,7.50
2018-10-12T07:30:02.235Z,9.00
2018-10-12T07:32:32.503Z,7.50
2018-10-12T07:35:02.864Z,6.75
2018-10-12T07:37:33.322Z,6.00
2018-10-12T07:40:03.972Z,7.00
2018-10-12T07:42:35.524Z,7.00
2018-10-12T07:45:08.156Z,7.00
2018-10-12T07:47:46.687Z,9.75
2018-10-12T07:50:17.160Z,9.00
2018-10-12T07:52:50.908Z,8.00
2018-10-12T07:55:22.439Z,9.25
2018-10-12T07:57:53.217Z,8.75
2018-10-12T08:00:23.234Z,8.00
2018-10-12T08:02:55.528Z,9.75
2018-10-12T08:05:25.667Z,11.75
2018-10-12T08:07:56.235Z,8.00
2018-10-12T08:10:27.266Z,9.75
2018-10-12T08:12:59.988Z,8.00
2018-10-12T08:15:29.631Z,7.75
2018-10-12T08:17:59.304Z,8.25
2018-10-12T08:20:31.222Z,9.25
2018-10-12T08:23:06.539Z,7.00
2018-10-12T08:25:36.667Z,10.00
2018-10-12T08:28:06.631Z,11.00
2018-10-12T08:30:36.057Z,7.50
2018-10-12T08:33:06.592Z,8.75
2018-10-12T08:35:35.993Z,10.00
2018-10-12T08:38:05.380Z,8.50
2018-10-12T08:40:34.618Z,12.50
2018-10-12T08:43:03.978Z,10.25
2018-10-12T08:45:33.388Z,10.50
2018-10-12T08:48:02.677Z,13.00
2018-10-12T08:50:32.945Z,11.00
2018-10-12T08:53:02.245Z,13.25
2018-10-12T08:55:31.553Z,10.00
2018-10-12T08:58:00.783Z,14.00
2018-10-12T09:00:30.158Z,11.00
2018-10-12T09:02:59.430Z,13.00
2018-10-12T09:05:28.665Z,14.00
2018-10-12T09:07:57.931Z,14.00
2018-10-12T09:10:27.211Z,11.50
2018-10-12T09:12:56.516Z,13.75
2018-10-12T09:15:25.764Z,12.50
2018-10-12T09:17:55.066Z,14.50
2018-10-12T09:20:24.602Z,11.00
2018-10-12T09:22:54.051Z,11.75
2018-10-12T09:25:23.314Z,10.25
2018-10-12T09:27:52.590Z,12.25
2018-10-12T09:30:21.873Z,12.00
2018-10-12T09:32:51.106Z,12.25
2018-10-12T09:35:20.430Z,14.00
2018-10-12T09:37:49.672Z,12.75
2018-10-12T09:40:18.887Z,10.75
2018-10-12T09:42:48.664Z,10.50
2018-10-12T09:45:17.890Z,9.00
2018-10-12T09:47:47.129Z,9.25
2018-10-12T09:50:16.430Z,10.50
2018-10-12T09:52:45.735Z,12.75
2018-10-12T09:55:15.034Z,9.25
2018-10-12T09:57:44.609Z,10.75
2018-10-12T10:00:19.184Z,11.00
2018-10-12T10:02:54.543Z,6.50
2018-10-12T10:05:23.839Z,8.25
2018-10-12T10:07:53.173Z,9.00
2018-10-12T10:10:22.409Z,9.50
2018-10-12T10:12:52.716Z,8.75
2018-10-12T10:15:22.046Z,8.00
2018-10-12T10:17:51.293Z,6.50
2018-10-12T10:20:20.719Z,8.00
2018-10-12T10:22:49.987Z,8.00
2018-10-12T10:25:19.389Z,10.25
2018-10-12T10:27:48.684Z,7.75
2018-10-12T10:30:18.091Z,7.75
2018-10-12T10:32:47.532Z,8.25
2018-10-12T10:35:17.911Z,9.25
2018-10-12T10:37:47.274Z,7.75
2018-10-12T10:40:16.924Z,9.00
2018-10-12T10:42:46.195Z,8.25
2018-10-12T10:45:15.951Z,8.00
2018-10-12T10:47:45.186Z,7.00
2018-10-12T10:50:14.459Z,10.25
2018-10-12T10:52:44.155Z,7.00
2018-10-12T10:55:14.408Z,8.00
2018-10-12T10:57:43.971Z,9.50
2018-10-12T11:00:13.230Z,8.00
2018-10-12T11:02:42.486Z,9.75
2018-10-12T11:05:11.675Z,10.00
2018-10-12T11:07:40.930Z,8.00
2018-10-12T11:10:10.146Z,9.25
2018-10-12T11:12:39.463Z,9.50
2018-10-12T11:15:08.703Z,8.00
2018-10-12T11:17:37.997Z,6.75
2018-10-12T11:20:07.350Z,9.00
2018-10-12T11:22:36.654Z,6.50
2018-10-12T11:25:05.923Z,6.75
2018-10-12T11:27:35.160Z,8.00
2018-10-12T11:30:04.529Z,7.75
2018-10-12T11:32:33.779Z,10.25
2018-10-12T11:35:04.679Z,8.00
2018-10-12T11:37:33.911Z,10.00
2018-10-12T11:40:03.160Z,6.00
2018-10-12T11:43:40.232Z,10.00
2018-10-12T11:46:09.433Z,10.00
2018-10-12T11:48:38.707Z,7.50
2018-10-12T11:51:08.074Z,5.25
2018-10-12T11:53:37.322Z,6.75
2018-10-12T11:56:06.639Z,4.00
2018-10-12T11:58:35.836Z,5.50
2018-10-12T12:01:05.133Z,3.00
2018-10-12T12:03:34.349Z,5.50
2018-10-12T12:06:03.571Z,6.50
2018-10-12T12:08:32.794Z,5.75
2018-10-12T12:11:02.027Z,7.00
2018-10-12T12:13:31.267Z,6.25
2018-10-12T12:16:00.521Z,4.00
2018-10-12T12:18:29.741Z,5.00
2018-10-12T12:20:58.954Z,4.25
2018-10-12T12:23:28.177Z,7.00
2018-10-12T12:25:57.390Z,8.00
2018-10-12T12:28:26.705Z,5.00
2018-10-12T12:30:55.945Z,4.50
2018-10-12T12:33:25.203Z,5.75
2018-10-12T12:35:55.142Z,5.00
2018-10-12T12:38:24.080Z,5.00
2018-10-12T12:40:53.422Z,5.50
2018-10-12T12:43:22.725Z,5.75
2018-10-12T12:45:52.167Z,8.00
2018-10-12T12:48:21.645Z,6.50
2018-10-12T12:50:50.659Z,6.00
2018-10-12T12:53:20.072Z,5.50
2018-10-12T12:55:49.307Z,7.00
2018-10-12T12:58:18.611Z,6.00
2018-10-12T13:00:48.231Z,5.00
2018-10-12T13:03:17.829Z,4.00
2018-10-12T13:05:47.733Z,3.25
2018-10-12T13:08:17.131Z,4.75
2018-10-12T13:10:46.492Z,5.25
2018-10-12T13:13:15.771Z,5.00
2018-10-12T13:15:45.094Z,5.00
2018-10-12T13:18:14.595Z,5.50
2018-10-12T13:20:43.946Z,4.50
2018-10-12T13:23:13.316Z,4.00
2018-10-12T13:25:42.719Z,5.25
2018-10-12T13:28:12.130Z,4.00
2018-10-12T13:30:42.223Z,5.00
2018-10-12T13:33:11.523Z,7.00
2018-10-12T13:35:40.847Z,5.50
2018-10-12T13:38:10.069Z,5.75
2018-10-12T13:40:39.359Z,5.00
2018-10-12T13:43:08.639Z,5.50
2018-10-12T13:45:37.847Z,5.00
2018-10-12T13:48:07.318Z,5.00
2018-10-12T13:50:36.965Z,6.25
2018-10-12T13:53:07.041Z,4.75
2018-10-12T13:55:36.446Z,6.00
2018-10-12T13:58:05.751Z,5.75
2018-10-12T14:00:35.749Z,5.75
2018-10-12T14:03:06.101Z,5.00
2018-10-12T14:05:35.334Z,6.00
2018-10-12T14:08:04.833Z,6.25
2018-10-12T14:10:34.113Z,5.00
2018-10-12T14:13:03.520Z,6.25
2018-10-12T14:15:32.814Z,6.00
2018-10-12T14:18:02.183Z,6.75
2018-10-12T14:20:31.554Z,5.50
2018-10-12T14:23:00.855Z,5.00
2018-10-12T14:25:30.120Z,6.00
2018-10-12T14:27:59.491Z,7.00
2018-10-12T14:30:28.855Z,5.00
2018-10-12T14:32:58.241Z,5.50
2018-10-12T14:35:30.631Z,6.00
2018-10-12T14:38:00.373Z,5.00
2018-10-12T14:40:30.416Z,5.75
2018-10-12T14:43:01.811Z,6.25
2018-10-12T14:45:32.672Z,7.00
2018-10-12T14:48:03.291Z,5.75
2018-10-12T14:50:33.052Z,6.25
2018-10-12T14:53:04.165Z,6.00
2018-10-12T14:55:34.166Z,6.50
2018-10-12T14:58:04.212Z,4.25
2018-10-12T15:00:34.807Z,6.00
2018-10-12T15:03:05.500Z,5.25
2018-10-12T15:05:35.555Z,6.50
2018-10-12T15:08:05.922Z,6.00
2018-10-12T15:10:35.982Z,5.25
2018-10-12T15:13:06.924Z,6.00
2018-10-12T15:15:36.412Z,5.50
2018-10-12T15:18:06.283Z,7.50
2018-10-12T15:20:36.475Z,5.00
2018-10-12T15:23:07.223Z,6.75
2018-10-12T15:25:37.959Z,6.00
2018-10-12T15:28:08.006Z,9.00
2018-10-12T15:30:38.198Z,6.00
2018-10-12T15:33:09.896Z,6.00
2018-10-12T15:35:40.662Z,5.25
2018-10-12T15:38:11.349Z,6.75
2018-10-12T15:40:41.743Z,7.00
2018-10-12T15:43:12.304Z,8.00
2018-10-12T15:45:42.781Z,8.25
2018-10-12T15:48:13.322Z,6.75
2018-10-12T15:50:43.993Z,8.00
2018-10-12T15:53:14.571Z,8.25
2018-10-12T15:55:45.038Z,7.75
2018-10-12T15:58:14.622Z,7.50
2018-10-12T16:00:45.467Z,6.50
2018-10-12T16:03:15.493Z,8.00
2018-10-12T16:05:45.390Z,7.00
2018-10-12T16:08:15.865Z,8.00
2018-10-12T16:10:47.024Z,7.50
2018-10-12T16:13:19.104Z,7.25
2018-10-12T16:15:49.131Z,7.00
2018-10-12T16:18:20.039Z,5.75
2018-10-12T16:20:50.603Z,7.75
2018-10-12T16:23:21.329Z,7.00
2018-10-12T16:26:03.509Z,6.75
2018-10-12T16:28:34.211Z,7.25
2018-10-12T16:31:04.658Z,8.00
2018-10-12T16:33:36.491Z,6.75
2018-10-12T16:36:07.124Z,8.50
2018-10-12T16:38:37.674Z,7.00
2018-10-12T16:41:07.224Z,7.25
2018-10-12T16:43:38.178Z,8.00
2018-10-12T16:46:07.763Z,7.75
2018-10-12T16:48:37.454Z,7.50
2018-10-12T16:51:07.105Z,8.00
2018-10-12T16:53:36.796Z,7.50
2018-10-12T16:56:06.883Z,8.00
2018-10-12T16:58:37.475Z,9.75
2018-10-12T17:01:07.991Z,8.50
2018-10-12T17:03:40.290Z,8.75
2018-10-12T17:06:09.760Z,8.25
2018-10-12T17:08:39.133Z,10.25
2018-10-12T17:11:08.465Z,11.50
2018-10-12T17:13:38.357Z,11.00
2018-10-12T17:16:07.880Z,9.75
2018-10-12T17:18:37.204Z,11.00
2018-10-12T17:21:06.523Z,11.00
2018-10-12T17:23:35.875Z,10.50
2018-10-12T17:26:05.161Z,11.00
2018-10-12T17:28:34.412Z,10.25
2018-10-12T17:31:03.887Z,10.00
2018-10-12T17:33:33.118Z,11.00
2018-10-12T17:36:02.384Z,10.00
2018-10-12T17:38:31.639Z,8.75
2018-10-12T17:41:19.747Z,10.50
2018-10-12T17:43:51.853Z,11.50
2018-10-12T17:46:21.198Z,11.00
2018-10-12T17:48:50.860Z,11.25
2018-10-12T17:51:20.611Z,10.50
2018-10-12T17:53:50.606Z,11.50
2018-10-12T17:56:20.012Z,12.25
2018-10-12T17:58:49.536Z,10.50
2018-10-12T18:01:19.757Z,13.50
2018-10-12T18:03:50.187Z,10.75
2018-10-12T18:06:19.590Z,14.00
2018-10-12T18:08:49.168Z,11.50
2018-10-12T18:11:18.575Z,10.75
2018-10-12T18:13:48.006Z,10.50
2018-10-12T18:16:17.299Z,14.50
2018-10-12T18:18:46.648Z,10.00
2018-10-12T18:21:16.179Z,9.75
2018-10-12T18:23:46.117Z,13.00
2018-10-12T18:26:15.526Z,13.00
2018-10-12T18:28:45.323Z,12.75
2018-10-12T18:31:14.646Z,14.50
2018-10-12T18:33:43.988Z,12.75
2018-10-12T18:36:13.386Z,12.50
2018-10-12T18:38:42.755Z,11.25
2018-10-12T18:41:12.267Z,13.25
2018-10-12T18:43:41.655Z,12.75
2018-10-12T18:46:11.007Z,14.75
2018-10-12T18:48:40.454Z,14.00
2018-10-12T18:51:09.823Z,13.25
2018-10-12T18:53:39.977Z,14.00
2018-10-12T18:56:09.220Z,12.75
2018-10-12T18:58:39.027Z,13.00
2018-10-12T19:01:08.617Z,15.50
2018-10-12T19:03:38.055Z,15.50
2018-10-12T19:06:07.415Z,16.50
2018-10-12T19:08:37.095Z,13.75
2018-10-12T19:11:06.697Z,14.25
2018-10-12T19:13:37.099Z,14.25
2018-10-12T19:16:06.587Z,13.00
2018-10-12T19:18:35.989Z,17.00
2018-10-12T19:21:05.333Z,13.75
2018-10-12T19:23:41.346Z,13.00
2018-10-12T19:26:11.095Z,16.50
2018-10-12T19:28:40.334Z,15.25
2018-10-12T19:31:09.686Z,16.75
2018-10-12T19:33:39.178Z,13.00
2018-10-12T19:36:08.490Z,14.25
2018-10-12T19:38:37.796Z,15.00
2018-10-12T19:41:07.082Z,18.00
2018-10-12T19:43:36.347Z,15.00
2018-10-12T19:46:05.686Z,14.75
2018-10-12T19:48:34.927Z,14.00
2018-10-12T19:51:04.270Z,17.50
2018-10-12T19:53:33.537Z,14.75
2018-10-12T19:56:02.874Z,15.75
2018-10-12T19:58:32.159Z,16.25
2018-10-12T20:01:01.461Z,17.50
2018-10-12T20:03:30.764Z,15.00
2018-10-12T20:06:00.073Z,17.25
2018-10-12T20:08:29.352Z,17.00
2018-10-12T20:10:58.720Z,16.25
2018-10-12T20:13:28.346Z,15.25
2018-10-12T20:15:57.603Z,16.50
2018-10-12T20:18:27.113Z,17.00
2018-10-12T20:20:56.478Z,15.25
2018-10-12T20:23:25.870Z,17.00
2018-10-12T20:25:55.254Z,20.25
2018-10-12T20:28:24.752Z,17.25
2018-10-12T20:30:54.104Z,17.00
2018-10-12T20:33:23.542Z,19.50
2018-10-12T20:35:52.872Z,17.00
2018-10-12T20:38:22.149Z,16.75
2018-10-12T20:40:51.490Z,17.00
2018-10-12T20:43:20.894Z,17.25
2018-10-12T20:45:50.321Z,16.50
2018-10-12T20:48:19.639Z,18.75
2018-10-12T20:50:49.373Z,17.25
2018-10-12T20:53:18.595Z,18.00
2018-10-12T20:55:49.761Z,16.25
2018-10-12T20:58:19.178Z,17.00
2018-10-12T21:00:48.458Z,17.75
2018-10-12T21:03:18.366Z,18.00
2018-10-12T21:05:47.705Z,16.25
2018-10-12T21:08:16.991Z,18.00
2018-10-12T21:10:46.254Z,15.25
2018-10-12T21:13:15.514Z,18.50
2018-10-12T21:15:45.709Z,16.00
2018-10-12T21:18:14.967Z,15.25
2018-10-12T21:20:44.219Z,15.50
2018-10-12T21:23:13.421Z,19.75
2018-10-12T21:25:42.655Z,17.50
2018-10-12T21:28:11.946Z,15.50
2018-10-12T21:30:41.162Z,16.50
2018-10-12T21:33:10.370Z,13.75
2018-10-12T21:35:39.648Z,16.00
2018-10-12T21:38:08.939Z,15.75
2018-10-12T21:40:38.282Z,16.00
2018-10-12T21:43:07.726Z,16.00
2018-10-12T21:45:36.950Z,18.00
2018-10-12T21:48:06.220Z,17.75
2018-10-12T21:50:35.513Z,15.75
2018-10-12T21:53:05.027Z,15.00
2018-10-12T21:55:35.611Z,18.25
2018-10-12T21:58:04.933Z,16.00
2018-10-12T22:00:34.254Z,15.25
2018-10-12T22:03:03.546Z,17.75
2018-10-12T22:05:33.461Z,17.25
2018-10-12T22:08:02.732Z,15.00
2018-10-12T22:10:32.043Z,14.25
2018-10-12T22:13:01.334Z,14.75
2018-10-12T22:15:30.639Z,16.75
2018-10-12T22:17:59.941Z,14.75
2018-10-12T22:20:29.185Z,15.25
2018-10-12T22:22:58.450Z,14.25
2018-10-12T22:25:27.750Z,17.25
2018-10-12T22:27:56.980Z,16.00
2018-10-12T22:30:26.231Z,15.00
2018-10-12T22:32:55.527Z,17.25
2018-10-12T22:35:24.847Z,17.50
2018-10-12T22:37:54.077Z,18.50
2018-10-12T22:40:23.379Z,13.75
2018-10-12T22:42:54.866Z,18.00
2018-10-12T22:45:25.178Z,16.75
2018-10-12T22:47:54.411Z,17.25
2018-10-12T22:50:23.691Z,17.50
2018-10-12T22:52:52.965Z,17.25
2018-10-12T22:55:22.246Z,18.00
2018-10-12T22:57:55.628Z,17.25
2018-10-12T23:00:24.940Z,15.75
2018-10-12T23:02:54.219Z,16.75
2018-10-12T23:05:24.377Z,15.25
2018-10-12T23:07:53.667Z,16.00
2018-10-12T23:10:23.579Z,18.50
2018-10-12T23:12:53.038Z,19.50
2018-10-12T23:15:22.581Z,15.50
2018-10-12T23:17:51.954Z,15.25
2018-10-12T23:20:21.299Z,16.50
2018-10-12T23:22:50.572Z,15.00
2018-10-12T23:25:19.873Z,16.75
2018-10-12T23:27:49.258Z,15.50
2018-10-12T23:30:18.601Z,16.75
2018-10-12T23:32:47.944Z,14.00
2018-10-12T23:35:17.252Z,16.25
2018-10-12T23:37:46.501Z,15.50
2018-10-12T23:40:15.836Z,18.25
2018-10-12T23:42:45.157Z,15.00
2018-10-12T23:45:14.578Z,13.00
2018-10-12T23:47:49.434Z,16.50
2018-10-12T23:50:18.775Z,18.00
2018-10-12T23:52:48.083Z,16.50
2018-10-12T23:55:17.607Z,18.25
2018-10-12T23:57:46.924Z,17.75
